SANT/TUC METAR and TAF weather

Enter ICAO airport designator
Station Type Date Time Source
SANT METAR 2019/08/22 09:00 UTC NOAA

SANT 220900Z 27006KT 8000 NSC 05/02 Q1022


Station Type Date Time Source
SANT Decoded METAR 2019/08/22 09:00 UTC NOAA

Station name not available
Aug 22, 2019 - 05:00 AM EDT / 2019.08.22 0900 UTC
Wind: from the W (270 degrees) at 7 MPH (6 KT):0
Visibility: 4 mile(s):0
Temperature: 41 F (5 C)
Dew Point: 35 F (2 C)
Relative Humidity: 80%
Pressure (altimeter): 30.18 in. Hg (1022 hPa)
ob: SANT 220900Z 27006KT 8000 NSC 05/02 Q1022
cycle: 9

Station Type Date Time Source
SANT TAF 2019/08/22 06:15 UTC NOAA

TAF TAF SANT 220500Z 2206/2306 23005KT 3000 FU NSC TX22/2218Z TN06/2210Z
BECMG 2212/2215 21010KT 5000 FU SCT025

Example: see airport list